[ EDKA 261120Z AUTO 05009KT 9999 -RA ///////// 05/05 Q1001 ]
Windrichtung (graph.)
Inst: 57° 9.5 kt
2min: 54° 11.8 kt
10min: 56° 10.7 kt
Extrem: 38° – 71° 15.7 kt – 6.8 kt
Crosswind: -3.3 kt
Luftdruck (graph.)
QNH: 1001 hPa Temp: 5.2 °C
QNH: 29.56 inHg DewP: 4.5 °C
QFE: 978 hPa Hum: 95.0 %
QFE: 28.91 inHg